Time;durP1;ratioP1;P1;durP2;ratioP2;P2;SDS_P1;SDS_P2;PMS_P1;PMS_P2;Temp;Humidity;BMP_temperature;BMP_pressure;BME280_temperature;BME280_humidity;BME280_pressure;Samples;Min_cycle;Max_cycle;Signal;HPM_P1;HPM_P2
2023/03/13 00:02:20;;;;;;;4.43;1.77;;;5.80;99.90;;;;;;5093628;28;20276;-81
2023/03/13 00:04:48;;;;;;;3.43;1.80;;;5.70;99.90;;;;;;5093802;28;20222;-80
2023/03/13 00:07:16;;;;;;;4.00;1.70;;;5.70;99.90;;;;;;5092912;28;20207;-82
2023/03/13 00:09:44;;;;;;;5.13;2.03;;;5.70;99.90;;;;;;5093981;28;20251;-81
2023/03/13 00:12:13;;;;;;;5.37;1.90;;;5.70;99.90;;;;;;5093426;28;20211;-81
2023/03/13 00:14:41;;;;;;;4.00;2.00;;;5.60;99.90;;;;;;5092910;28;20211;-80
2023/03/13 00:17:09;;;;;;;3.20;1.90;;;5.60;99.90;;;;;;5093336;28;20272;-80
2023/03/13 00:19:38;;;;;;;4.20;2.13;;;5.50;99.90;;;;;;5093454;28;20602;-80
2023/03/13 00:22:07;;;;;;;4.93;1.90;;;5.50;99.90;;;;;;5093197;28;20285;-80
2023/03/13 00:24:35;;;;;;;4.90;1.93;;;5.50;99.90;;;;;;5093217;28;20684;-79
2023/03/13 00:27:04;;;;;;;4.03;1.93;;;5.40;99.90;;;;;;5093489;28;20597;-81
2023/03/13 00:29:34;;;;;;;3.17;1.90;;;5.30;99.90;;;;;;5092535;28;20633;-80
2023/03/13 00:32:02;;;;;;;3.83;2.00;;;5.30;99.90;;;;;;5093156;28;20219;-80
2023/03/13 00:34:30;;;;;;;3.13;1.70;;;5.30;99.90;;;;;;5093480;28;20211;-80
2023/03/13 00:37:00;;;;;;;3.40;1.80;;;5.20;99.90;;;;;;5093459;28;20211;-80
2023/03/13 00:39:28;;;;;;;3.90;1.70;;;5.30;99.90;;;;;;5092313;28;20318;-81
2023/03/13 00:41:56;;;;;;;2.80;1.40;;;5.20;99.90;;;;;;5093063;28;20655;-81
2023/03/13 00:44:25;;;;;;;4.10;1.63;;;5.10;99.90;;;;;;5079586;28;20233;-81
2023/03/13 00:46:53;;;;;;;5.33;1.80;;;5.10;99.90;;;;;;5091916;28;20206;-81
2023/03/13 00:49:22;;;;;;;2.37;1.57;;;5.00;99.90;;;;;;5093337;28;20211;-80
2023/03/13 00:51:50;;;;;;;2.53;1.60;;;5.00;99.90;;;;;;5092339;28;20667;-80
2023/03/13 00:54:19;;;;;;;3.37;1.50;;;5.00;99.90;;;;;;5092796;28;20747;-81
2023/03/13 00:56:47;;;;;;;3.07;1.80;;;4.90;99.90;;;;;;5092149;28;20238;-80
2023/03/13 00:59:18;;;;;;;4.87;1.87;;;4.90;99.90;;;;;;5093053;28;20199;-80
2023/03/13 01:01:46;;;;;;;3.53;1.90;;;4.90;99.90;;;;;;5093134;28;20242;-80
2023/03/13 01:04:15;;;;;;;2.60;1.50;;;4.90;99.90;;;;;;5091929;28;20230;-80
2023/03/13 01:06:43;;;;;;;2.77;1.50;;;4.80;99.90;;;;;;5087372;28;20227;-81
2023/03/13 01:09:13;;;;;;;3.30;1.40;;;4.80;99.90;;;;;;5072343;28;20207;-81
2023/03/13 01:11:44;;;;;;;2.33;1.57;;;4.80;99.90;;;;;;5072521;28;20262;-80
2023/03/13 01:14:15;;;;;;;3.60;1.40;;;4.80;99.90;;;;;;5082640;28;20217;-80
2023/03/13 01:16:43;;;;;;;3.43;1.47;;;4.80;99.90;;;;;;5091668;28;20209;-80
2023/03/13 01:19:14;;;;;;;4.73;1.50;;;4.70;99.90;;;;;;5092629;28;20207;-80
2023/03/13 01:21:43;;;;;;;3.50;1.57;;;4.70;99.90;;;;;;5093013;28;20256;-81
2023/03/13 01:24:11;;;;;;;3.73;1.60;;;4.60;99.90;;;;;;5092118;28;20312;-80
2023/03/13 01:26:42;;;;;;;4.20;1.50;;;4.60;99.90;;;;;;5091589;28;20218;-81
2023/03/13 01:29:10;;;;;;;2.60;1.40;;;4.60;99.90;;;;;;5092408;28;20245;-81
2023/03/13 01:31:38;;;;;;;3.63;1.80;;;4.50;99.90;;;;;;5092569;28;20242;-81
2023/03/13 01:34:07;;;;;;;2.10;1.27;;;4.50;99.90;;;;;;5091292;28;20221;-79
2023/03/13 01:36:36;;;;;;;2.43;1.57;;;4.50;99.90;;;;;;5092647;28;20672;-80
2023/03/13 01:39:06;;;;;;;2.67;1.47;;;4.60;99.90;;;;;;5093346;28;20260;-81
2023/03/13 01:41:34;;;;;;;3.17;1.63;;;4.50;99.90;;;;;;5091601;28;20288;-81
2023/03/13 01:44:04;;;;;;;4.20;1.70;;;4.50;99.90;;;;;;5091840;28;20242;-80
2023/03/13 01:46:33;;;;;;;3.47;1.60;;;4.50;99.90;;;;;;5091987;28;20242;-82
2023/03/13 01:49:05;;;;;;;4.33;1.73;;;4.50;99.90;;;;;;5092230;28;20664;-81
2023/03/13 01:51:37;;;;;;;3.83;1.60;;;4.40;99.90;;;;;;5091599;28;20293;-81
2023/03/13 01:54:11;;;;;;;3.53;1.40;;;4.40;99.90;;;;;;5091859;28;20668;-81
2023/03/13 01:56:43;;;;;;;5.27;1.60;;;4.40;99.90;;;;;;5092612;28;20551;-80
2023/03/13 01:59:15;;;;;;;3.03;1.60;;;4.40;99.90;;;;;;5092176;28;20648;-81
2023/03/13 02:01:46;;;;;;;4.27;1.40;;;4.40;99.90;;;;;;5092182;28;20203;-79
2023/03/13 02:04:16;;;;;;;1.70;1.50;;;4.40;99.90;;;;;;5092117;28;20281;-80
2023/03/13 02:06:47;;;;;;;3.00;1.60;;;4.40;99.90;;;;;;5092639;28;20260;-79
2023/03/13 02:09:23;;;;;;;3.17;1.40;;;4.40;99.90;;;;;;5094213;28;20400;-81
2023/03/13 02:11:57;;;;;;;1.70;1.30;;;4.40;99.90;;;;;;5092027;28;20461;-79
2023/03/13 02:14:30;;;;;;;3.53;1.50;;;4.40;99.90;;;;;;5091591;28;20195;-81
2023/03/13 02:16:58;;;;;;;2.97;1.43;;;4.30;99.90;;;;;;5093056;28;20206;-80
2023/03/13 02:19:35;;;;;;;2.67;1.57;;;4.30;99.90;;;;;;5095809;28;20210;-78
2023/03/13 02:22:12;;;;;;;2.53;1.53;;;4.30;99.90;;;;;;5095563;28;20217;-80
2023/03/13 02:24:48;;;;;;;4.43;1.70;;;4.30;99.90;;;;;;5095055;28;20703;-79
2023/03/13 02:27:17;;;;;;;2.70;1.50;;;4.20;99.90;;;;;;5094263;28;20629;-79
2023/03/13 02:29:46;;;;;;;1.57;1.27;;;4.20;99.90;;;;;;5084437;28;20663;-80
2023/03/13 02:32:15;;;;;;;1.83;1.53;;;4.20;99.90;;;;;;5096982;28;20214;-81
2023/03/13 02:34:46;;;;;;;2.40;1.50;;;4.10;99.90;;;;;;5098001;28;20324;-80
2023/03/13 02:37:15;;;;;;;4.43;1.80;;;4.10;99.90;;;;;;5098867;28;20191;-81
2023/03/13 02:39:47;;;;;;;4.60;1.70;;;4.10;99.90;;;;;;5097806;28;20210;-79
2023/03/13 02:42:18;;;;;;;2.90;1.77;;;4.10;99.90;;;;;;5096114;28;20625;-81
2023/03/13 02:44:47;;;;;;;2.20;1.50;;;4.10;99.90;;;;;;5096629;28;20532;-81
2023/03/13 02:47:19;;;;;;;5.47;1.80;;;4.10;99.90;;;;;;5096092;28;20261;-81
2023/03/13 02:49:49;;;;;;;4.33;1.90;;;4.10;99.90;;;;;;5095085;28;20234;-81
2023/03/13 02:52:23;;;;;;;2.97;1.60;;;4.10;99.90;;;;;;5095586;28;20264;-80
2023/03/13 02:54:55;;;;;;;2.87;1.57;;;4.10;99.90;;;;;;5095860;28;20209;-80
2023/03/13 02:57:25;;;;;;;2.10;1.40;;;4.10;99.90;;;;;;5095237;28;20207;-81
2023/03/13 02:59:53;;;;;;;4.30;1.60;;;4.10;99.90;;;;;;5075415;28;20211;-81
2023/03/13 03:02:22;;;;;;;3.27;1.80;;;4.20;99.90;;;;;;5075101;28;20231;-81
2023/03/13 03:04:50;;;;;;;1.87;1.60;;;4.20;99.90;;;;;;5075084;28;20689;-81
2023/03/13 03:07:18;;;;;;;4.07;1.60;;;4.20;99.90;;;;;;5075081;28;20215;-81
2023/03/13 03:09:46;;;;;;;3.23;1.77;;;4.20;99.90;;;;;;5074695;28;20673;-80
2023/03/13 03:12:14;;;;;;;2.17;1.40;;;4.20;99.90;;;;;;5074567;28;20207;-81
2023/03/13 03:14:44;;;;;;;2.27;1.60;;;4.20;99.90;;;;;;5094398;28;20214;-81
2023/03/13 03:17:12;;;;;;;3.83;1.80;;;4.20;99.90;;;;;;5095070;28;20626;-80
2023/03/13 03:19:40;;;;;;;3.33;1.70;;;4.30;99.90;;;;;;5095130;28;20306;-81
2023/03/13 03:22:08;;;;;;;2.47;1.63;;;4.30;99.90;;;;;;5094900;28;20593;-80
2023/03/13 03:24:38;;;;;;;2.40;1.83;;;4.30;99.90;;;;;;5094845;28;20207;-80
2023/03/13 03:27:06;;;;;;;3.93;1.87;;;4.30;99.90;;;;;;5094813;28;20202;-81
2023/03/13 03:29:34;;;;;;;3.23;1.67;;;4.30;99.90;;;;;;5093492;28;20664;-79
2023/03/13 03:32:04;;;;;;;2.30;1.60;;;4.30;99.90;;;;;;5094462;28;20239;-79
2023/03/13 03:34:32;;;;;;;2.33;1.53;;;4.30;99.90;;;;;;5094133;28;20210;-81
2023/03/13 03:37:00;;;;;;;1.90;1.70;;;4.30;99.90;;;;;;5081410;28;20202;-80
2023/03/13 03:39:29;;;;;;;3.30;1.70;;;4.30;99.90;;;;;;5094275;28;20257;-80
2023/03/13 03:41:57;;;;;;;2.30;1.53;;;4.40;99.90;;;;;;5094330;28;20245;-80
2023/03/13 03:44:26;;;;;;;3.20;1.90;;;4.40;99.90;;;;;;5094859;28;20656;-80
2023/03/13 03:46:54;;;;;;;3.30;1.53;;;4.40;99.90;;;;;;5094661;28;20260;-81
2023/03/13 03:49:23;;;;;;;3.47;1.60;;;4.40;99.90;;;;;;5094456;28;20598;-81
2023/03/13 03:51:52;;;;;;;1.77;1.60;;;4.50;99.90;;;;;;5094429;28;20571;-81
2023/03/13 03:54:20;;;;;;;1.57;1.43;;;4.50;99.90;;;;;;5085693;28;20604;-81
2023/03/13 03:56:48;;;;;;;2.43;1.73;;;4.40;99.90;;;;;;5074000;28;20235;-81
2023/03/13 03:59:17;;;;;;;3.90;1.60;;;4.50;99.90;;;;;;5087777;28;20334;-80
2023/03/13 04:01:45;;;;;;;3.63;1.53;;;4.40;99.90;;;;;;5093677;28;20221;-80
2023/03/13 04:04:13;;;;;;;1.60;1.40;;;4.40;99.90;;;;;;5093587;28;20280;-80
2023/03/13 04:06:43;;;;;;;2.57;1.50;;;4.50;99.90;;;;;;5094102;28;20611;-80
2023/03/13 04:09:11;;;;;;;1.90;1.50;;;4.50;99.90;;;;;;5093781;28;20246;-79
2023/03/13 04:11:39;;;;;;;2.30;1.43;;;4.50;99.90;;;;;;5093605;28;20725;-81
2023/03/13 04:14:07;;;;;;;3.87;1.50;;;4.50;99.90;;;;;;5093283;28;20294;-81
2023/03/13 04:16:35;;;;;;;2.27;1.50;;;4.40;99.90;;;;;;5092735;28;20238;-80
2023/03/13 04:19:04;;;;;;;2.00;1.70;;;4.40;99.90;;;;;;5093753;28;20644;-79
2023/03/13 04:21:33;;;;;;;2.20;1.30;;;4.40;99.90;;;;;;5093588;28;20211;-80
2023/03/13 04:24:02;;;;;;;2.67;1.63;;;4.40;99.90;;;;;;5093182;28;20293;-81
2023/03/13 04:26:30;;;;;;;2.17;1.30;;;4.40;99.90;;;;;;5092696;28;20262;-81
2023/03/13 04:29:22;;;;;;;1.67;1.37;;;4.40;99.90;;;;;;5093490;28;20194;-79
2023/03/13 04:31:51;;;;;;;1.73;1.50;;;4.40;99.90;;;;;;5093150;28;20230;-81
2023/03/13 04:34:22;;;;;;;1.90;1.60;;;4.40;99.90;;;;;;5092261;28;20238;-81
2023/03/13 04:36:50;;;;;;;2.07;1.40;;;4.40;99.90;;;;;;5093419;28;20213;-81
2023/03/13 04:39:23;;;;;;;2.10;1.50;;;4.40;99.90;;;;;;5089627;28;20195;-82
2023/03/13 04:41:52;;;;;;;2.03;1.53;;;4.40;99.90;;;;;;5093008;28;20191;-81
2023/03/13 04:44:21;;;;;;;1.80;1.40;;;4.50;99.90;;;;;;5092616;28;20223;-79
2023/03/13 04:46:49;;;;;;;4.40;1.80;;;4.50;99.90;;;;;;5092770;28;20234;-80
2023/03/13 04:49:19;;;;;;;1.67;1.50;;;4.50;99.90;;;;;;5092614;28;20675;-79
2023/03/13 04:51:50;;;;;;;2.47;1.63;;;4.50;99.90;;;;;;5092972;28;20213;-81
2023/03/13 04:54:19;;;;;;;2.53;2.03;;;4.50;99.90;;;;;;5091031;28;20199;-81
2023/03/13 04:56:47;;;;;;;2.73;1.77;;;4.50;99.90;;;;;;5092919;28;20382;-80
2023/03/13 04:59:16;;;;;;;2.23;1.80;;;4.60;99.90;;;;;;5093121;28;20233;-79
2023/03/13 05:01:44;;;;;;;3.10;1.70;;;4.60;99.90;;;;;;5092786;28;20238;-80
2023/03/13 05:04:12;;;;;;;1.77;1.60;;;4.50;99.90;;;;;;5091722;28;20233;-80
2023/03/13 05:06:40;;;;;;;1.70;1.60;;;4.60;99.90;;;;;;5092792;28;20318;-81
2023/03/13 05:09:08;;;;;;;2.40;1.73;;;4.60;99.90;;;;;;5091423;28;20207;-80
2023/03/13 05:11:39;;;;;;;1.97;1.77;;;4.60;99.90;;;;;;5095320;28;20297;-81
2023/03/13 05:14:08;;;;;;;2.33;1.90;;;4.60;99.90;;;;;;5092968;28;20191;-81
2023/03/13 05:16:37;;;;;;;3.37;2.00;;;4.70;99.90;;;;;;5093382;28;20204;-81
2023/03/13 05:19:05;;;;;;;2.20;1.77;;;4.70;99.90;;;;;;5092131;28;20211;-79
2023/03/13 05:21:33;;;;;;;2.40;2.00;;;4.70;99.90;;;;;;5095078;28;20217;-79
2023/03/13 05:24:01;;;;;;;2.23;1.63;;;4.80;99.90;;;;;;5093488;28;20207;-81
2023/03/13 05:26:29;;;;;;;2.07;1.57;;;4.80;99.90;;;;;;5092521;28;20233;-81
2023/03/13 05:28:59;;;;;;;2.03;1.80;;;4.80;99.90;;;;;;5091671;28;20215;-80
2023/03/13 05:31:27;;;;;;;2.83;1.90;;;4.90;99.90;;;;;;5092114;28;20293;-81
2023/03/13 05:33:55;;;;;;;3.23;1.90;;;4.90;99.90;;;;;;5092088;28;20203;-80
2023/03/13 05:36:23;;;;;;;1.70;1.50;;;5.00;99.90;;;;;;5091449;28;20620;-81
2023/03/13 05:38:51;;;;;;;1.70;1.60;;;5.00;99.90;;;;;;5092213;28;20214;-81
2023/03/13 05:41:23;;;;;;;2.90;1.90;;;5.00;99.90;;;;;;5092244;28;20237;-81
2023/03/13 05:43:51;;;;;;;2.73;1.70;;;5.00;99.90;;;;;;5091823;28;20230;-80
2023/03/13 05:46:20;;;;;;;3.37;1.97;;;5.00;99.90;;;;;;5093065;28;20310;-81
2023/03/13 05:48:49;;;;;;;2.67;1.80;;;5.10;99.90;;;;;;5093012;28;20700;-79
2023/03/13 05:51:17;;;;;;;2.70;1.90;;;5.10;99.90;;;;;;5091744;28;20298;-80
2023/03/13 05:53:46;;;;;;;2.63;1.93;;;5.10;99.90;;;;;;5093056;28;20249;-80
2023/03/13 05:56:14;;;;;;;3.70;2.00;;;5.20;99.90;;;;;;5093400;28;20206;-79
2023/03/13 05:58:42;;;;;;;2.83;1.90;;;5.20;99.90;;;;;;5092477;28;20215;-81
2023/03/13 06:01:12;;;;;;;2.20;1.90;;;5.20;99.90;;;;;;5091412;28;20206;-81
2023/03/13 06:03:41;;;;;;;2.53;2.07;;;5.30;99.90;;;;;;5093537;28;20226;-80
2023/03/13 06:06:10;;;;;;;4.10;2.10;;;5.30;99.90;;;;;;5093427;28;20325;-79
2023/03/13 06:08:39;;;;;;;3.43;2.10;;;5.40;99.90;;;;;;5093182;28;20234;-81
2023/03/13 06:11:07;;;;;;;3.63;2.40;;;5.40;99.90;;;;;;5093918;28;20276;-80
2023/03/13 06:13:35;;;;;;;5.97;2.47;;;5.40;99.90;;;;;;5090883;28;20238;-80
2023/03/13 06:16:04;;;;;;;3.90;2.40;;;5.40;99.90;;;;;;5080619;28;20530;-79
2023/03/13 06:18:33;;;;;;;4.97;2.23;;;5.50;99.90;;;;;;5093743;28;20261;-81
2023/03/13 06:21:03;;;;;;;3.00;2.17;;;5.50;99.90;;;;;;5091816;28;20759;-80
2023/03/13 06:23:31;;;;;;;2.10;1.90;;;5.50;99.90;;;;;;5090853;28;20265;-80
2023/03/13 06:26:01;;;;;;;3.47;1.93;;;5.60;99.90;;;;;;5091311;28;20213;-80
2023/03/13 06:28:29;;;;;;;1.90;1.70;;;5.60;99.90;;;;;;5091691;28;20676;-79
2023/03/13 06:31:02;;;;;;;2.73;1.87;;;5.60;99.90;;;;;;5091693;28;20302;-80
2023/03/13 06:33:31;;;;;;;2.03;1.77;;;5.60;99.90;;;;;;5090601;28;20222;-80
2023/03/13 06:36:02;;;;;;;2.23;1.90;;;5.60;99.90;;;;;;5091544;28;20234;-81
2023/03/13 06:38:31;;;;;;;2.13;1.93;;;5.70;99.90;;;;;;5091523;28;20274;-81
2023/03/13 06:41:00;;;;;;;2.10;1.80;;;5.80;99.90;;;;;;5090772;28;20217;-81
2023/03/13 06:43:28;;;;;;;2.27;1.80;;;5.80;99.90;;;;;;5091283;28;20282;-79
2023/03/13 06:45:56;;;;;;;5.03;2.03;;;5.90;99.90;;;;;;5091487;28;20613;-80
2023/03/13 06:48:25;;;;;;;2.20;2.00;;;5.90;99.90;;;;;;5091049;28;20258;-81
2023/03/13 06:50:55;;;;;;;2.43;2.00;;;5.90;99.90;;;;;;5090708;28;20215;-80
2023/03/13 06:53:25;;;;;;;1.77;1.60;;;5.90;99.90;;;;;;5091360;28;20203;-80
2023/03/13 06:55:53;;;;;;;2.60;1.70;;;5.90;99.90;;;;;;5091699;28;20207;-80
2023/03/13 06:58:21;;;;;;;2.13;1.83;;;6.00;99.90;;;;;;5091596;28;20641;-81
2023/03/13 07:00:59;;;;;;;3.43;2.00;;;6.10;99.90;;;;;;5090613;28;20225;-80
2023/03/13 07:03:28;;;;;;;2.33;1.57;;;6.10;99.90;;;;;;5091203;28;20265;-81
2023/03/13 07:05:57;;;;;;;2.63;1.70;;;6.20;99.90;;;;;;5094664;28;20215;-79
2023/03/13 07:08:27;;;;;;;2.40;1.70;;;6.20;99.90;;;;;;5094689;28;20231;-79
2023/03/13 07:10:59;;;;;;;2.57;1.57;;;6.30;99.90;;;;;;5094929;28;20290;-80
2023/03/13 07:13:28;;;;;;;1.87;1.50;;;6.70;99.90;;;;;;5095044;28;20214;-79
2023/03/13 07:16:00;;;;;;;2.97;1.57;;;6.60;99.90;;;;;;5094981;28;20242;-79
2023/03/13 07:18:28;;;;;;;1.77;1.57;;;6.60;99.90;;;;;;5093718;28;20661;-79
2023/03/13 07:20:58;;;;;;;1.63;1.53;;;6.70;99.90;;;;;;5089697;28;20685;-80
2023/03/13 07:23:29;;;;;;;1.57;1.47;;;6.70;99.90;;;;;;5082838;28;20289;-81
2023/03/13 07:25:59;;;;;;;1.77;1.57;;;6.70;99.90;;;;;;5093615;28;20215;-81
2023/03/13 07:28:30;;;;;;;3.37;1.53;;;6.70;99.90;;;;;;5078152;28;20263;-81
2023/03/13 07:31:05;;;;;;;2.33;1.40;;;6.80;99.90;;;;;;5074386;28;20595;-80
2023/03/13 07:33:33;;;;;;;1.67;1.50;;;6.70;99.90;;;;;;5091846;28;20210;-78
2023/03/13 07:36:02;;;;;;;2.70;1.40;;;6.80;99.90;;;;;;5094569;28;20211;-79
2023/03/13 07:38:32;;;;;;;1.30;1.20;;;6.80;99.90;;;;;;5094209;28;20700;-80
2023/03/13 07:41:03;;;;;;;2.10;1.60;;;6.80;99.90;;;;;;5094166;28;20202;-80
2023/03/13 07:43:31;;;;;;;1.67;1.47;;;6.80;99.90;;;;;;5092902;28;20245;-80
2023/03/13 07:46:01;;;;;;;2.13;1.33;;;6.90;99.90;;;;;;5093726;28;20298;-79
2023/03/13 07:48:31;;;;;;;1.93;1.30;;;6.90;99.90;;;;;;5093305;28;20231;-80
2023/03/13 07:51:00;;;;;;;1.30;1.20;;;7.00;99.90;;;;;;5091224;28;20207;-81
2023/03/13 07:53:29;;;;;;;1.30;1.20;;;7.10;99.90;;;;;;5072434;28;20672;-80
2023/03/13 07:56:00;;;;;;;2.43;1.20;;;7.30;99.90;;;;;;5073570;28;20203;-80
2023/03/13 07:58:31;;;;;;;1.80;1.23;;;7.40;99.90;;;;;;5085721;28;20310;-80
2023/03/13 08:01:07;;;;;;;2.17;1.33;;;7.50;99.90;;;;;;5093677;28;20241;-80
2023/03/13 08:03:35;;;;;;;5.00;1.77;;;7.50;99.90;;;;;;5093037;28;20195;-78
2023/03/13 08:06:05;;;;;;;2.03;1.43;;;7.50;99.90;;;;;;5086794;28;20211;-79
2023/03/13 08:08:34;;;;;;;1.83;1.30;;;7.30;99.90;;;;;;5072943;28;20211;-79
2023/03/13 08:11:05;;;;;;;2.17;1.40;;;7.30;99.90;;;;;;5072957;28;20317;-80
2023/03/13 08:13:35;;;;;;;2.83;1.50;;;7.20;99.90;;;;;;5072624;28;20646;-82
2023/03/13 08:16:07;;;;;;;1.90;1.40;;;7.20;99.90;;;;;;5082525;28;20243;-80
2023/03/13 08:18:37;;;;;;;1.93;1.40;;;7.20;99.90;;;;;;5072384;28;20188;-80
2023/03/13 08:21:07;;;;;;;1.80;1.10;;;7.30;99.90;;;;;;5078336;28;20211;-84
2023/03/13 08:23:36;;;;;;;1.57;1.30;;;7.40;99.90;;;;;;5092617;28;20404;-81
2023/03/13 08:26:08;;;;;;;2.87;1.20;;;7.50;99.90;;;;;;5093211;28;20251;-83
2023/03/13 08:28:37;;;;;;;1.60;1.30;;;7.60;99.90;;;;;;5093024;28;20219;-82
2023/03/13 08:31:10;;;;;;;2.43;1.50;;;7.70;99.90;;;;;;5090072;28;20838;-83
2023/03/13 08:33:39;;;;;;;3.70;1.43;;;7.80;99.90;;;;;;5091205;28;20676;-82
2023/03/13 08:36:17;;;;;;;2.50;1.40;;;7.90;99.90;;;;;;5093244;28;20230;-84
2023/03/13 08:38:46;;;;;;;2.53;1.70;;;8.00;99.90;;;;;;5091383;28;20246;-81
2023/03/13 08:41:19;;;;;;;2.47;1.60;;;8.00;99.90;;;;;;5092921;28;20221;-81
2023/03/13 08:43:48;;;;;;;2.10;1.40;;;8.10;99.90;;;;;;5092897;28;20249;-82
2023/03/13 08:46:16;;;;;;;1.53;1.43;;;8.20;99.90;;;;;;5092335;28;20207;-82
2023/03/13 08:48:50;;;;;;;1.83;1.13;;;8.30;99.90;;;;;;5092997;28;20211;-83
2023/03/13 08:51:22;;;;;;;1.20;1.10;;;8.30;99.90;;;;;;5094092;28;20207;-81
2023/03/13 08:53:51;;;;;;;2.43;1.67;;;8.40;99.90;;;;;;5094997;28;20213;-81
2023/03/13 08:56:22;;;;;;;2.80;1.80;;;8.60;99.90;;;;;;5104399;28;20664;-83
2023/03/13 08:58:52;;;;;;;1.30;1.10;;;8.80;99.90;;;;;;5098145;28;20187;-81
2023/03/13 09:01:21;;;;;;;2.40;1.17;;;9.10;99.90;;;;;;5101023;28;20270;-80
2023/03/13 09:03:51;;;;;;;1.00;1.00;;;9.50;99.90;;;;;;5096869;28;20214;-80
2023/03/13 09:06:19;;;;;;;2.53;1.00;;;9.90;99.90;;;;;;5092676;28;20215;-83
2023/03/13 09:08:48;;;;;;;2.50;1.20;;;10.40;99.90;;;;;;5092524;28;20214;-83
2023/03/13 09:11:19;;;;;;;1.77;1.10;;;11.20;99.90;;;;;;5091803;28;20246;-82
2023/03/13 09:13:50;;;;;;;1.80;1.27;;;12.00;99.90;;;;;;5092285;28;20277;-80
2023/03/13 09:16:20;;;;;;;2.70;1.20;;;12.50;99.90;;;;;;5093371;28;20203;-80
2023/03/13 09:18:49;;;;;;;2.13;1.30;;;13.00;99.90;;;;;;5091598;28;20722;-80
2023/03/13 09:21:19;;;;;;;1.17;1.07;;;12.80;99.90;;;;;;5088498;28;20348;-80
2023/03/13 09:23:47;;;;;;;2.07;1.20;;;13.20;99.90;;;;;;5091152;28;20214;-81
2023/03/13 09:26:17;;;;;;;2.10;1.00;;;14.20;99.90;;;;;;5091581;28;20272;-81
2023/03/13 09:28:50;;;;;;;2.13;1.10;;;15.20;99.90;;;;;;5091220;28;20219;-81
2023/03/13 09:31:20;;;;;;;1.70;1.10;;;15.60;99.90;;;;;;5092748;28;20203;-79
2023/03/13 09:33:50;;;;;;;1.60;1.30;;;16.40;99.90;;;;;;5091652;28;20290;-80
2023/03/13 09:36:20;;;;;;;2.43;1.27;;;16.30;99.90;;;;;;5089560;28;20210;-80
2023/03/13 09:38:53;;;;;;;1.70;1.50;;;16.70;99.90;;;;;;5091753;28;20229;-82
2023/03/13 09:41:25;;;;;;;2.07;1.10;;;17.20;99.90;;;;;;5086430;28;20279;-78
2023/03/13 09:44:02;;;;;;;1.43;1.10;;;17.90;99.90;;;;;;5087808;28;20218;-79
2023/03/13 09:46:39;;;;;;;1.33;0.70;;;18.30;97.30;;;;;;5091936;28;20202;-80
2023/03/13 09:49:15;;;;;;;0.90;0.90;;;19.00;95.40;;;;;;5091492;28;20202;-81
2023/03/13 09:51:53;;;;;;;1.90;0.80;;;18.60;93.30;;;;;;5088408;28;20247;-80
2023/03/13 09:54:25;;;;;;;1.07;0.90;;;18.70;97.90;;;;;;5091363;28;20203;-81
2023/03/13 09:56:58;;;;;;;2.13;0.90;;;18.50;95.30;;;;;;5091509;28;20225;-79
2023/03/13 09:59:35;;;;;;;0.90;0.80;;;18.60;93.80;;;;;;5091074;28;20198;-81
2023/03/13 10:02:13;;;;;;;1.97;0.83;;;19.00;93.50;;;;;;5088092;28;20938;-82
2023/03/13 10:04:45;;;;;;;3.13;1.00;;;19.70;92.80;;;;;;5089736;28;20258;-78
2023/03/13 10:07:14;;;;;;;0.90;0.73;;;20.00;92.70;;;;;;5091369;28;20235;-80
2023/03/13 10:09:43;;;;;;;2.83;0.93;;;20.50;90.10;;;;;;5091897;28;20245;-80
2023/03/13 10:12:17;;;;;;;2.53;1.03;;;21.10;91.70;;;;;;5091492;28;20664;-79
2023/03/13 10:14:58;;;;;;;2.90;0.97;;;21.20;88.80;;;;;;5092004;28;20210;-78
2023/03/13 10:17:32;;;;;;;0.70;0.70;;;21.10;87.90;;;;;;5091056;28;20249;-81
2023/03/13 10:20:09;;;;;;;0.70;0.60;;;21.30;83.00;;;;;;5091358;28;20190;-79
2023/03/13 10:22:39;;;;;;;1.93;1.07;;;20.80;83.00;;;;;;5088897;28;20667;-80
2023/03/13 10:25:12;;;;;;;1.40;1.00;;;20.80;85.00;;;;;;5090812;28;20199;-79
2023/03/13 10:27:45;;;;;;;2.23;0.90;;;19.90;84.40;;;;;;5090849;28;20229;-81
2023/03/13 10:30:23;;;;;;;1.70;0.90;;;19.60;84.70;;;;;;5087740;28;20783;-78
2023/03/13 10:32:53;;;;;;;0.90;0.90;;;18.80;88.90;;;;;;5091031;28;20234;-81
2023/03/13 10:35:30;;;;;;;1.63;0.93;;;18.60;90.60;;;;;;5088690;28;20299;-82
2023/03/13 10:38:04;;;;;;;2.33;0.93;;;18.50;91.10;;;;;;5089822;28;20271;-80
2023/03/13 10:40:32;;;;;;;1.77;0.90;;;18.10;91.70;;;;;;5092228;28;20360;-81
2023/03/13 10:43:04;;;;;;;2.57;1.00;;;18.20;92.60;;;;;;5093675;28;20256;-80
2023/03/13 10:45:36;;;;;;;2.20;0.80;;;18.30;94.20;;;;;;5094508;28;20225;-80
2023/03/13 10:48:12;;;;;;;2.83;0.80;;;18.40;93.30;;;;;;5074513;28;20208;-80
2023/03/13 10:50:44;;;;;;;0.87;0.70;;;18.80;91.80;;;;;;5091017;28;20230;-81
2023/03/13 10:53:23;;;;;;;1.03;0.80;;;19.30;91.10;;;;;;5093085;28;20683;-80
2023/03/13 10:55:54;;;;;;;1.27;0.90;;;19.90;90.00;;;;;;5093825;28;20285;-77
2023/03/13 10:58:27;;;;;;;1.03;0.70;;;20.00;88.40;;;;;;5093751;28;20223;-77
2023/03/13 11:01:17;;;;;;;1.77;1.07;;;19.90;86.90;;;;;;5093506;28;20191;-78
2023/03/13 11:03:47;;;;;;;1.27;0.70;;;19.70;86.50;;;;;;5085614;28;20297;-81
2023/03/13 11:06:25;;;;;;;1.67;0.90;;;19.60;85.90;;;;;;5094371;28;20233;-83
2023/03/13 11:09:04;;;;;;;2.93;0.83;;;19.90;86.50;;;;;;5094523;28;20806;-81
2023/03/13 11:11:44;;;;;;;0.67;0.60;;;20.20;84.00;;;;;;5096101;28;20312;-82
2023/03/13 11:14:18;;;;;;;1.10;0.83;;;20.40;83.10;;;;;;5094979;28;20229;-82
2023/03/13 11:16:49;;;;;;;1.73;0.83;;;21.20;81.50;;;;;;5086810;28;20242;-83
2023/03/13 11:19:30;;;;;;;2.40;0.83;;;21.90;81.40;;;;;;5093690;28;20235;-81
2023/03/13 11:22:27;;;;;;;0.93;0.70;;;21.80;78.50;;;;;;5095031;28;20206;-82
2023/03/13 11:25:04;;;;;;;1.63;0.80;;;22.20;77.90;;;;;;5096571;28;20225;-82
2023/03/13 11:27:37;;;;;;;1.60;0.80;;;22.00;76.40;;;;;;5096379;28;20229;-84
2023/03/13 11:30:21;;;;;;;1.37;0.70;;;22.00;77.70;;;;;;5076114;28;20453;-83
2023/03/13 11:32:54;;;;;;;1.00;0.80;;;22.00;78.10;;;;;;5091133;28;20425;-84
2023/03/13 11:35:37;;;;;;;1.37;0.70;;;21.50;76.10;;;;;;5098026;28;20544;-84
2023/03/13 11:38:13;;;;;;;1.70;0.63;;;21.70;77.60;;;;;;5096625;28;20259;-83
2023/03/13 11:40:52;;;;;;;1.93;0.63;;;22.00;79.40;;;;;;5097487;28;20277;-84
2023/03/13 11:43:44;;;;;;;1.47;0.80;;;22.60;77.50;;;;;;5093598;28;20644;-82
2023/03/13 11:46:33;;;;;;;0.80;0.70;;;23.30;76.60;;;;;;5095766;28;20207;-82
2023/03/13 11:49:35;;;;;;;0.70;0.70;;;23.30;77.10;;;;;;5093543;28;20231;-82
2023/03/13 11:52:15;;;;;;;0.40;0.40;;;23.60;76.80;;;;;;5091834;28;20234;-84
2023/03/13 11:55:16;;;;;;;1.67;0.60;;;23.40;80.00;;;;;;5087487;28;20290;-82
2023/03/13 11:57:53;;;;;;;1.03;0.43;;;23.00;81.90;;;;;;5082176;28;20304;-83
2023/03/13 12:00:29;;;;;;;0.73;0.43;;;22.30;83.30;;;;;;5102295;28;20313;-81
2023/03/13 12:03:04;;;;;;;0.60;0.53;;;22.20;84.50;;;;;;5095539;28;20221;-81
2023/03/13 12:05:40;;;;;;;1.40;0.60;;;22.20;84.90;;;;;;5093713;28;20194;-82
2023/03/13 12:08:16;;;;;;;1.37;0.80;;;22.00;87.10;;;;;;5091298;28;20696;-81
2023/03/13 12:10:52;;;;;;;1.50;0.60;;;22.10;87.10;;;;;;5090809;28;20246;-83
2023/03/13 12:13:27;;;;;;;0.40;0.40;;;21.90;86.40;;;;;;5073914;28;20291;-81
2023/03/13 12:15:59;;;;;;;2.27;0.90;;;21.90;87.00;;;;;;5085561;28;20726;-81
2023/03/13 12:18:32;;;;;;;1.10;0.63;;;21.70;85.70;;;;;;5093845;28;20241;-80
2023/03/13 12:21:05;;;;;;;1.17;0.70;;;21.10;86.90;;;;;;5092825;28;20203;-79
2023/03/13 12:23:45;;;;;;;1.03;0.70;;;20.50;87.70;;;;;;5093893;28;20191;-81
2023/03/13 12:26:17;;;;;;;1.50;0.73;;;20.20;89.70;;;;;;5095523;28;20237;-82
2023/03/13 12:28:51;;;;;;;1.20;0.80;;;20.00;90.30;;;;;;5097430;28;20187;-82
2023/03/13 12:31:26;;;;;;;2.03;0.93;;;20.20;91.30;;;;;;5094750;28;20333;-81
2023/03/13 12:34:00;;;;;;;2.57;0.83;;;20.40;91.10;;;;;;5085232;28;20253;-81
2023/03/13 12:36:33;;;;;;;1.70;0.93;;;20.40;90.50;;;;;;5076574;28;20244;-80
2023/03/13 12:39:14;;;;;;;1.27;1.10;;;20.50;88.90;;;;;;5092547;28;20187;-82
2023/03/13 12:41:47;;;;;;;3.70;0.83;;;20.40;90.40;;;;;;5092952;28;20710;-79
2023/03/13 12:44:18;;;;;;;2.33;1.10;;;20.30;88.70;;;;;;5093089;28;20246;-82
2023/03/13 12:46:48;;;;;;;2.63;0.83;;;20.10;88.80;;;;;;5092143;28;20672;-81
2023/03/13 12:49:55;;;;;;;2.83;1.30;;;20.20;89.70;;;;;;5093396;28;20207;-81
2023/03/13 12:52:45;;;;;;;1.73;0.90;;;20.20;90.10;;;;;;5092547;28;20207;-82
2023/03/13 12:55:43;;;;;;;1.07;0.80;;;20.40;90.20;;;;;;5094461;28;20281;-83
2023/03/13 12:58:26;;;;;;;2.97;1.10;;;20.50;89.10;;;;;;5072547;28;20637;-82
2023/03/13 13:00:57;;;;;;;1.93;1.00;;;20.30;90.10;;;;;;5072245;28;20219;-82
2023/03/13 13:03:32;;;;;;;2.07;1.00;;;20.10;90.00;;;;;;5086253;28;20660;-81
2023/03/13 13:06:10;;;;;;;2.80;1.00;;;20.40;91.00;;;;;;5093231;28;20242;-81
2023/03/13 13:08:41;;;;;;;1.60;0.90;;;20.40;90.70;;;;;;5092947;28;20225;-82
2023/03/13 13:11:49;;;;;;;3.60;1.00;;;20.50;90.40;;;;;;5093543;28;20698;-82
2023/03/13 13:14:56;;;;;;;2.53;0.93;;;20.40;89.20;;;;;;5011566;28;20304;-79
2023/03/13 13:17:46;;;;;;;1.73;1.10;;;20.40;90.10;;;;;;5114779;28;20689;-81